createdAt,value
2018-12-29T00:01:09.017Z,24.02
2018-12-29T00:03:49.019Z,26.12
2018-12-29T00:06:28.694Z,24.77
2018-12-29T00:09:08.650Z,22.87
2018-12-29T00:11:48.400Z,22.22
2018-12-29T00:14:28.164Z,23.90
2018-12-29T00:17:08.052Z,23.42
2018-12-29T00:19:48.192Z,22.10
2018-12-29T00:22:28.282Z,22.17
2018-12-29T00:25:08.108Z,23.15
2018-12-29T00:27:47.885Z,23.85
2018-12-29T00:30:27.658Z,22.70
2018-12-29T00:33:10.090Z,19.73
2018-12-29T00:35:51.340Z,21.80
2018-12-29T00:38:31.112Z,22.55
2018-12-29T00:41:11.442Z,20.85
2018-12-29T00:43:51.455Z,19.98
2018-12-29T00:46:31.286Z,19.95
2018-12-29T00:49:11.210Z,19.05
2018-12-29T00:51:50.915Z,26.52
2018-12-29T00:54:30.609Z,29.40
2018-12-29T00:57:10.588Z,19.70
2018-12-29T00:59:50.276Z,41.13
2018-12-29T01:02:30.064Z,19.65
2018-12-29T01:05:09.869Z,22.58
2018-12-29T01:07:49.578Z,18.23
2018-12-29T01:10:30.619Z,18.80
2018-12-29T01:13:11.387Z,19.85
2018-12-29T01:15:51.520Z,19.00
2018-12-29T01:18:31.506Z,18.70
2018-12-29T01:21:11.236Z,17.42
2018-12-29T01:23:52.198Z,19.10
2018-12-29T01:26:31.979Z,18.12
2018-12-29T01:29:12.197Z,18.12
2018-12-29T01:31:53.953Z,17.73
2018-12-29T01:34:33.860Z,17.20
2018-12-29T01:37:16.266Z,16.40
2018-12-29T01:39:55.953Z,16.05
2018-12-29T01:42:35.944Z,18.60
2018-12-29T01:45:17.633Z,18.25
2018-12-29T01:47:59.818Z,18.32
2018-12-29T01:50:39.532Z,16.87
2018-12-29T01:53:19.255Z,15.32
2018-12-29T01:55:59.628Z,16.48
2018-12-29T01:58:39.317Z,15.80
2018-12-29T02:01:19.741Z,12.33
2018-12-29T02:03:59.577Z,13.45
2018-12-29T02:06:39.321Z,13.90
2018-12-29T02:09:19.222Z,11.93
2018-12-29T02:11:59.329Z,12.90
2018-12-29T02:14:40.767Z,11.68
2018-12-29T02:17:20.960Z,11.57
2018-12-29T02:20:00.772Z,12.30
2018-12-29T02:22:40.585Z,14.03
2018-12-29T02:25:20.363Z,13.32
2018-12-29T02:28:00.349Z,13.18
2018-12-29T02:30:40.318Z,14.40
2018-12-29T02:33:20.111Z,14.55
2018-12-29T02:36:00.061Z,13.10
2018-12-29T02:38:40.221Z,12.65
2018-12-29T02:41:19.959Z,13.83
2018-12-29T02:43:59.751Z,15.13
2018-12-29T02:46:39.475Z,15.72
2018-12-29T02:49:19.219Z,14.75
2018-12-29T02:51:59.310Z,13.72
2018-12-29T02:54:40.897Z,13.70
2018-12-29T02:57:20.635Z,14.90
2018-12-29T03:00:00.675Z,13.75
2018-12-29T03:02:40.664Z,14.65
2018-12-29T03:05:20.497Z,12.47
2018-12-29T03:08:00.408Z,14.05
2018-12-29T03:10:40.403Z,13.30
2018-12-29T03:13:21.480Z,14.03
2018-12-29T03:16:01.294Z,13.15
2018-12-29T03:18:43.542Z,13.35
2018-12-29T03:21:23.600Z,14.83
2018-12-29T03:24:03.302Z,14.93
2018-12-29T03:26:47.173Z,13.35
2018-12-29T03:29:26.987Z,13.72
2018-12-29T03:32:09.331Z,15.00
2018-12-29T03:34:50.333Z,13.93
2018-12-29T03:37:30.366Z,14.50
2018-12-29T03:40:10.297Z,14.45
2018-12-29T03:42:52.371Z,14.15
2018-12-29T03:45:35.716Z,12.98
2018-12-29T03:48:15.711Z,15.18
2018-12-29T03:50:55.579Z,15.35
2018-12-29T03:53:35.667Z,15.15
2018-12-29T03:56:15.491Z,15.45
2018-12-29T03:58:58.656Z,12.90
2018-12-29T04:01:40.139Z,13.68
2018-12-29T04:04:22.462Z,14.55
2018-12-29T04:07:02.308Z,14.20
2018-12-29T04:09:42.353Z,13.90
2018-12-29T04:12:25.805Z,15.13
2018-12-29T04:15:06.023Z,13.45
2018-12-29T04:17:46.214Z,15.35
2018-12-29T04:20:26.090Z,14.68
2018-12-29T04:23:05.876Z,16.70
2018-12-29T04:25:51.765Z,14.83
2018-12-29T04:28:31.817Z,16.70
2018-12-29T04:31:11.688Z,18.10
2018-12-29T04:33:51.473Z,17.25
2018-12-29T04:36:50.466Z,20.80
2018-12-29T04:39:32.440Z,17.55
2018-12-29T04:42:12.404Z,17.05
2018-12-29T04:44:53.136Z,16.37
2018-12-29T04:47:35.656Z,15.45
2018-12-29T04:50:15.528Z,16.65
2018-12-29T04:52:57.405Z,17.98
2018-12-29T04:55:42.748Z,19.92
2018-12-29T04:58:22.595Z,18.90
2018-12-29T05:01:03.779Z,21.65
2018-12-29T05:03:43.609Z,19.10
2018-12-29T05:06:23.603Z,17.57
2018-12-29T05:09:04.835Z,17.98
2018-12-29T05:11:46.776Z,19.52
2018-12-29T05:14:26.603Z,20.70
2018-12-29T05:17:06.571Z,19.15
2018-12-29T05:19:46.302Z,18.75
2018-12-29T05:22:30.911Z,18.23
2018-12-29T05:25:10.967Z,20.20
2018-12-29T05:27:50.684Z,20.12
2018-12-29T05:30:30.561Z,17.98
2018-12-29T05:33:10.389Z,21.68
2018-12-29T05:35:50.289Z,18.35
2018-12-29T05:38:31.222Z,18.67
2018-12-29T05:41:13.116Z,20.08
2018-12-29T05:43:53.122Z,17.37
2018-12-29T05:46:33.428Z,21.37
2018-12-29T05:49:16.003Z,19.30
2018-12-29T05:51:56.408Z,21.33
2018-12-29T05:54:36.157Z,20.08
2018-12-29T05:57:15.919Z,18.75
2018-12-29T05:59:55.905Z,20.20
2018-12-29T06:02:35.756Z,19.52
2018-12-29T06:05:15.544Z,21.07
2018-12-29T06:07:55.264Z,22.00
2018-12-29T06:10:35.131Z,22.05
2018-12-29T06:13:15.031Z,21.77
2018-12-29T06:15:54.836Z,19.85
2018-12-29T06:18:34.763Z,21.17
2018-12-29T06:21:14.860Z,18.75
2018-12-29T06:23:54.725Z,22.27
2018-12-29T06:26:34.473Z,20.68
2018-12-29T06:29:14.218Z,23.83
2018-12-29T06:31:54.009Z,19.70
2018-12-29T06:34:34.158Z,18.92
2018-12-29T06:37:13.841Z,22.58
2018-12-29T06:39:53.814Z,24.63
2018-12-29T06:42:33.499Z,23.10
2018-12-29T06:45:13.555Z,22.37
2018-12-29T06:47:54.734Z,23.73
2018-12-29T06:50:34.795Z,21.75
2018-12-29T06:53:14.514Z,24.30
2018-12-29T06:55:54.413Z,22.07
2018-12-29T06:58:34.284Z,23.90
2018-12-29T07:01:14.015Z,24.12
2018-12-29T07:03:54.133Z,22.93
2018-12-29T07:06:34.308Z,23.73
2018-12-29T07:09:14.269Z,25.05
2018-12-29T07:11:54.067Z,23.92
2018-12-29T07:14:33.957Z,19.17
2018-12-29T07:17:13.888Z,20.80
2018-12-29T07:19:54.250Z,20.85
2018-12-29T07:22:34.419Z,19.25
2018-12-29T07:25:14.287Z,19.62
2018-12-29T07:27:54.357Z,21.17
2018-12-29T07:30:34.052Z,18.70
2018-12-29T07:33:13.943Z,18.92
2018-12-29T07:35:53.952Z,20.08
2018-12-29T07:38:34.189Z,17.95
2018-12-29T07:41:13.955Z,16.52
2018-12-29T07:43:53.743Z,19.10
2018-12-29T07:46:33.489Z,17.12
2018-12-29T07:49:13.257Z,17.57
2018-12-29T07:51:53.207Z,16.82
2018-12-29T07:54:32.954Z,16.97
2018-12-29T07:57:13.276Z,18.30
2018-12-29T07:59:55.684Z,15.65
2018-12-29T08:02:35.543Z,17.57
2018-12-29T08:05:15.213Z,23.52
2018-12-29T08:07:56.483Z,17.27
2018-12-29T08:10:36.342Z,18.95
2018-12-29T08:13:17.876Z,22.50
2018-12-29T08:15:57.619Z,20.82
2018-12-29T08:18:37.285Z,22.13
2018-12-29T08:21:18.720Z,23.20
2018-12-29T08:23:58.651Z,20.82
2018-12-29T08:26:38.786Z,21.37
2018-12-29T08:29:19.830Z,24.20
2018-12-29T08:32:00.847Z,22.13
2018-12-29T08:34:40.823Z,27.02
2018-12-29T08:37:21.736Z,27.32
2018-12-29T08:40:01.808Z,24.65
2018-12-29T08:42:41.643Z,31.27
2018-12-29T08:45:21.437Z,23.35
2018-12-29T08:48:01.420Z,27.70
2018-12-29T08:50:41.373Z,25.40
2018-12-29T08:53:21.489Z,25.27
2018-12-29T08:56:05.310Z,32.53
2018-12-29T08:58:45.504Z,32.83
2018-12-29T09:01:25.528Z,25.20
2018-12-29T09:04:05.409Z,24.43
2018-12-29T09:06:45.151Z,23.10
2018-12-29T09:09:26.206Z,24.47
2018-12-29T09:12:05.944Z,21.12
2018-12-29T09:14:47.007Z,21.20
2018-12-29T09:17:29.771Z,26.35
2018-12-29T09:20:10.891Z,22.30
2018-12-29T09:22:52.087Z,25.32
2018-12-29T09:25:33.015Z,26.80
2018-12-29T09:28:12.787Z,21.65
2018-12-29T09:30:52.795Z,22.48
2018-12-29T09:33:32.872Z,24.87
2018-12-29T09:36:12.811Z,28.95
2018-12-29T09:38:54.808Z,25.12
2018-12-29T09:41:34.759Z,19.02
2018-12-29T09:44:14.555Z,23.80
2018-12-29T09:46:57.138Z,22.10
2018-12-29T09:49:37.225Z,19.80
2018-12-29T09:52:17.568Z,18.70
2018-12-29T09:54:57.235Z,17.48
2018-12-29T09:57:38.818Z,19.15
2018-12-29T10:00:18.616Z,21.20
2018-12-29T10:03:03.086Z,17.55
2018-12-29T10:05:43.074Z,18.65
2018-12-29T10:08:24.338Z,22.87
2018-12-29T10:11:04.092Z,18.90
2018-12-29T10:13:44.524Z,18.52
2018-12-29T10:16:24.802Z,20.32
2018-12-29T10:19:05.585Z,22.13
2018-12-29T10:21:46.798Z,20.60
2018-12-29T10:24:27.115Z,18.30
2018-12-29T10:27:06.887Z,25.70
2018-12-29T10:29:50.208Z,22.93
2018-12-29T10:32:29.962Z,21.97
2018-12-29T10:35:09.927Z,23.87
2018-12-29T10:37:52.144Z,26.23
2018-12-29T10:40:32.366Z,23.10
2018-12-29T10:43:12.167Z,23.60
2018-12-29T10:45:52.149Z,24.12
2018-12-29T10:48:34.508Z,25.08
2018-12-29T10:51:16.723Z,25.97
2018-12-29T10:53:56.608Z,24.80
2018-12-29T10:56:36.587Z,23.27
2018-12-29T10:59:16.254Z,26.40
2018-12-29T11:01:56.434Z,26.75
2018-12-29T11:04:36.490Z,25.10
2018-12-29T11:07:16.506Z,22.25
2018-12-29T11:09:56.341Z,28.83
2018-12-29T11:12:36.189Z,24.95
2018-12-29T11:15:16.646Z,20.52
2018-12-29T11:17:56.636Z,20.50
2018-12-29T11:20:36.517Z,22.80
2018-12-29T11:23:16.747Z,23.92
2018-12-29T11:25:56.492Z,21.87
2018-12-29T11:28:36.211Z,19.62
2018-12-29T11:31:16.100Z,22.35
2018-12-29T11:33:58.367Z,25.70
2018-12-29T11:36:38.460Z,22.02
2018-12-29T11:39:18.805Z,22.40
2018-12-29T11:41:58.795Z,20.50
2018-12-29T11:44:40.138Z,19.80
2018-12-29T11:47:20.033Z,21.33
2018-12-29T11:50:00.198Z,19.15
2018-12-29T11:52:39.880Z,20.27
2018-12-29T11:55:19.646Z,19.30
2018-12-29T11:58:04.064Z,18.75
2018-12-29T12:00:44.834Z,17.55
2018-12-29T12:03:28.571Z,25.17
2018-12-29T12:06:08.561Z,16.27
2018-12-29T12:08:49.184Z,19.80
2018-12-29T12:11:29.020Z,16.93
2018-12-29T12:14:08.918Z,17.52
2018-12-29T12:16:49.321Z,16.00
2018-12-29T12:19:29.557Z,14.53
2018-12-29T12:22:10.738Z,20.65
2018-12-29T12:24:50.575Z,25.72
2018-12-29T12:27:35.111Z,13.53
2018-12-29T12:30:14.810Z,14.63
2018-12-29T12:32:54.705Z,12.13
2018-12-29T12:35:34.718Z,12.70
2018-12-29T12:38:15.500Z,11.63
2018-12-29T12:40:55.621Z,13.60
2018-12-29T12:43:37.867Z,12.33
2018-12-29T12:46:17.834Z,11.63
2018-12-29T12:48:58.610Z,10.95
2018-12-29T12:51:38.812Z,11.88
2018-12-29T12:54:18.936Z,10.70
2018-12-29T12:57:17.866Z,9.63
2018-12-29T12:59:58.092Z,11.08
2018-12-29T13:02:38.475Z,9.08
2018-12-29T13:05:18.240Z,9.60
2018-12-29T13:07:58.198Z,9.75
2018-12-29T13:10:38.084Z,11.18
2018-12-29T13:13:17.788Z,10.13
2018-12-29T13:15:57.599Z,9.33
2018-12-29T13:18:37.465Z,11.60
2018-12-29T13:21:17.414Z,11.38
2018-12-29T13:23:57.383Z,9.80
2018-12-29T13:26:37.087Z,12.18
2018-12-29T13:29:16.752Z,13.15
2018-12-29T13:31:56.681Z,10.08
2018-12-29T13:34:36.542Z,9.53
2018-12-29T13:37:18.312Z,10.23
2018-12-29T13:39:58.139Z,12.23
2018-12-29T13:42:38.910Z,9.68
2018-12-29T13:45:20.815Z,12.25
2018-12-29T13:48:00.585Z,9.65
2018-12-29T13:50:40.524Z,9.78
2018-12-29T13:53:21.751Z,9.83
2018-12-29T13:56:01.423Z,9.05
2018-12-29T13:58:41.109Z,8.60
2018-12-29T14:01:20.890Z,11.80
2018-12-29T14:04:00.970Z,10.00
2018-12-29T14:06:40.950Z,10.10
2018-12-29T14:09:20.674Z,9.53
2018-12-29T14:12:00.416Z,12.23
2018-12-29T14:14:40.166Z,9.25
2018-12-29T14:17:20.179Z,8.40
2018-12-29T14:20:01.192Z,9.63
2018-12-29T14:22:41.150Z,9.95
2018-12-29T14:25:23.631Z,10.85
2018-12-29T14:28:03.990Z,11.10
2018-12-29T14:30:47.124Z,9.00
2018-12-29T14:33:26.966Z,9.50
2018-12-29T14:36:07.144Z,9.30
2018-12-29T14:38:49.128Z,9.63
2018-12-29T14:41:29.252Z,9.50
2018-12-29T14:44:09.151Z,9.25
2018-12-29T14:46:51.243Z,9.78
2018-12-29T14:49:32.479Z,10.53
2018-12-29T14:52:12.780Z,7.97
2018-12-29T14:54:52.891Z,11.68
2018-12-29T14:57:32.775Z,10.53
2018-12-29T15:00:13.035Z,9.38
2018-12-29T15:02:53.064Z,8.93
2018-12-29T15:05:33.354Z,8.88
2018-12-29T15:08:13.298Z,9.73
2018-12-29T15:10:53.230Z,8.90
2018-12-29T15:13:35.312Z,10.53
2018-12-29T15:16:15.088Z,10.58
2018-12-29T15:18:56.754Z,10.15
2018-12-29T15:21:37.194Z,12.85
2018-12-29T15:24:17.079Z,8.23
2018-12-29T15:26:56.823Z,8.98
2018-12-29T15:29:36.658Z,9.53
2018-12-29T15:32:16.968Z,8.65
2018-12-29T15:34:56.796Z,10.28
2018-12-29T15:37:36.444Z,8.95
2018-12-29T15:40:16.211Z,10.13
2018-12-29T15:42:55.880Z,8.03
2018-12-29T15:45:36.193Z,10.85
2018-12-29T15:48:15.896Z,8.98
2018-12-29T15:50:56.149Z,11.12
2018-12-29T15:53:36.144Z,11.45
2018-12-29T15:56:15.968Z,10.45
2018-12-29T15:58:55.643Z,10.35
2018-12-29T16:01:36.098Z,10.18
2018-12-29T16:04:15.872Z,9.75
2018-12-29T16:06:55.569Z,10.70
2018-12-29T16:09:38.043Z,10.50
2018-12-29T16:12:17.805Z,12.43
2018-12-29T16:15:00.704Z,9.55
2018-12-29T16:17:40.562Z,10.48
2018-12-29T16:20:20.302Z,9.40
2018-12-29T16:23:00.866Z,9.10
2018-12-29T16:25:40.605Z,9.50
2018-12-29T16:28:20.698Z,11.95
2018-12-29T16:31:00.634Z,9.98
2018-12-29T16:33:41.702Z,12.73
2018-12-29T16:36:21.688Z,10.28
2018-12-29T16:39:01.379Z,10.50
2018-12-29T16:41:42.662Z,9.75
2018-12-29T16:44:22.925Z,9.95
2018-12-29T16:47:03.387Z,10.65
2018-12-29T16:49:43.804Z,9.08
2018-12-29T16:52:23.471Z,11.00
2018-12-29T16:55:05.286Z,10.43
2018-12-29T16:57:45.030Z,9.78
2018-12-29T17:00:25.006Z,11.85
2018-12-29T17:03:04.833Z,10.50
2018-12-29T17:05:47.810Z,10.85
2018-12-29T17:08:27.229Z,11.68
2018-12-29T17:11:09.059Z,10.68
2018-12-29T17:13:49.423Z,12.45
2018-12-29T17:16:29.159Z,10.00
2018-12-29T17:19:14.686Z,9.60
2018-12-29T17:21:50.534Z,10.55
2018-12-29T17:24:30.699Z,10.50
2018-12-29T17:27:10.705Z,10.20
2018-12-29T17:29:50.344Z,9.90
2018-12-29T17:32:30.091Z,8.80
2018-12-29T17:35:10.114Z,9.58
2018-12-29T17:37:49.853Z,10.65
2018-12-29T17:40:29.651Z,10.82
2018-12-29T17:43:09.605Z,10.15
2018-12-29T17:45:49.982Z,10.85
2018-12-29T17:48:29.847Z,9.75
2018-12-29T17:51:10.019Z,7.72
2018-12-29T17:53:49.973Z,8.00
2018-12-29T17:56:29.626Z,8.15
2018-12-29T17:59:10.565Z,9.03
2018-12-29T18:01:50.721Z,10.03
2018-12-29T18:04:30.444Z,9.25
2018-12-29T18:07:12.620Z,7.78
2018-12-29T18:09:57.128Z,6.97
2018-12-29T18:12:35.684Z,9.10
2018-12-29T18:15:16.012Z,7.75
2018-12-29T18:17:56.236Z,6.55
2018-12-29T18:20:36.032Z,6.78
2018-12-29T18:23:16.964Z,7.40
2018-12-29T18:25:56.811Z,8.33
2018-12-29T18:28:38.909Z,7.97
2018-12-29T18:31:18.684Z,8.03
2018-12-29T18:33:58.427Z,7.58
2018-12-29T18:36:38.199Z,7.33
2018-12-29T18:39:17.891Z,7.42
2018-12-29T18:41:57.661Z,8.15
2018-12-29T18:44:38.621Z,8.03
2018-12-29T18:47:18.115Z,8.48
2018-12-29T18:50:01.136Z,9.10
2018-12-29T18:52:42.652Z,10.23
2018-12-29T18:55:24.155Z,8.78
2018-12-29T18:58:06.689Z,9.00
2018-12-29T19:00:46.902Z,9.53
2018-12-29T19:03:27.262Z,9.18
2018-12-29T19:06:07.320Z,10.80
2018-12-29T19:08:47.258Z,9.18
2018-12-29T19:11:32.434Z,10.58
2018-12-29T19:14:12.816Z,11.65
2018-12-29T19:16:54.583Z,12.53
2018-12-29T19:19:36.463Z,9.05
2018-12-29T19:22:16.478Z,9.73
2018-12-29T19:24:57.386Z,10.72
2018-12-29T19:27:37.644Z,9.43
2018-12-29T19:30:18.579Z,9.90
2018-12-29T19:32:59.119Z,9.08
2018-12-29T19:35:39.320Z,8.65
2018-12-29T19:38:19.051Z,10.08
2018-12-29T19:40:59.336Z,7.03
2018-12-29T19:43:39.511Z,9.10
2018-12-29T19:46:20.121Z,7.42
2018-12-29T19:48:59.803Z,7.33
2018-12-29T19:51:40.045Z,8.83
2018-12-29T19:54:19.923Z,7.45
2018-12-29T19:56:59.818Z,9.88
2018-12-29T19:59:39.926Z,7.12
2018-12-29T20:02:20.130Z,6.53
2018-12-29T20:05:01.483Z,7.28
2018-12-29T20:07:41.399Z,6.25
2018-12-29T20:10:22.553Z,6.67
2018-12-29T20:13:03.959Z,7.12
2018-12-29T20:15:43.777Z,7.20
2018-12-29T20:18:23.751Z,7.10
2018-12-29T20:21:03.759Z,7.55
2018-12-29T20:23:43.682Z,5.80
2018-12-29T20:26:23.611Z,6.40
2018-12-29T20:29:03.994Z,7.15
2018-12-29T20:31:43.701Z,8.00
2018-12-29T20:34:23.433Z,6.17
2018-12-29T20:37:03.456Z,5.85
2018-12-29T20:39:43.236Z,9.40
2018-12-29T20:42:23.211Z,7.70
2018-12-29T20:45:03.161Z,7.92
2018-12-29T20:47:42.923Z,5.25
2018-12-29T20:50:22.930Z,6.10
2018-12-29T20:53:02.638Z,6.78
2018-12-29T20:55:42.340Z,5.85
2018-12-29T20:58:22.207Z,6.40
2018-12-29T21:01:01.955Z,6.47
2018-12-29T21:03:41.701Z,5.90
2018-12-29T21:06:21.955Z,5.97
2018-12-29T21:09:08.656Z,5.25
2018-12-29T21:11:48.959Z,6.47
2018-12-29T21:14:29.384Z,3.30
2018-12-29T21:17:09.064Z,4.35
2018-12-29T21:19:48.934Z,4.28
2018-12-29T21:22:29.414Z,3.30
2018-12-29T21:25:09.397Z,4.00
2018-12-29T21:27:50.096Z,3.83
2018-12-29T21:30:32.892Z,3.85
2018-12-29T21:33:12.667Z,3.58
2018-12-29T21:35:54.933Z,3.70
2018-12-29T21:38:34.725Z,5.30
2018-12-29T21:41:14.471Z,3.12
2018-12-29T21:43:54.328Z,3.10
2018-12-29T21:46:34.088Z,3.22
2018-12-29T21:49:14.167Z,2.70
2018-12-29T21:51:53.873Z,2.10
2018-12-29T21:54:33.535Z,3.05
2018-12-29T21:57:13.459Z,2.45
2018-12-29T21:59:53.738Z,2.72
2018-12-29T22:02:33.486Z,2.72
2018-12-29T22:05:13.381Z,2.35
2018-12-29T22:07:53.674Z,1.90
2018-12-29T22:10:33.691Z,1.87
2018-12-29T22:13:13.687Z,4.78
2018-12-29T22:15:53.432Z,2.75
2018-12-29T22:18:33.226Z,2.02
2018-12-29T22:21:13.199Z,2.30
2018-12-29T22:23:55.934Z,2.42
2018-12-29T22:26:35.803Z,2.10
2018-12-29T22:29:17.889Z,2.27
2018-12-29T22:31:57.666Z,2.40
2018-12-29T22:34:40.079Z,1.77
2018-12-29T22:37:20.048Z,1.60
2018-12-29T22:39:59.695Z,1.75
2018-12-29T22:42:39.428Z,2.10
2018-12-29T22:45:20.402Z,2.25
2018-12-29T22:48:02.981Z,1.50
2018-12-29T22:50:42.639Z,1.98
2018-12-29T22:53:25.358Z,1.47
2018-12-29T22:56:05.101Z,1.85
2018-12-29T22:58:45.000Z,2.22
2018-12-29T23:01:27.299Z,2.75
2018-12-29T23:04:07.311Z,3.02
2018-12-29T23:06:47.270Z,1.77
2018-12-29T23:09:27.890Z,5.25
2018-12-29T23:12:07.704Z,2.37
2018-12-29T23:14:47.472Z,1.95
2018-12-29T23:17:32.877Z,1.85
2018-12-29T23:20:12.781Z,2.42
2018-12-29T23:22:53.695Z,2.15
2018-12-29T23:25:36.746Z,2.47
2018-12-29T23:28:16.582Z,1.67
2018-12-29T23:30:56.242Z,2.52
2018-12-29T23:33:36.298Z,2.08
2018-12-29T23:36:16.265Z,3.17
2018-12-29T23:38:56.995Z,2.27
2018-12-29T23:41:36.829Z,4.62
2018-12-29T23:44:16.552Z,2.65
2018-12-29T23:46:56.878Z,2.87
2018-12-29T23:49:37.034Z,2.37
2018-12-29T23:52:17.445Z,1.82
2018-12-29T23:54:57.090Z,2.80
2018-12-29T23:57:36.936Z,2.22
